sensor_id;sensor_type;location;lat;lon;timestamp;temperature;humidity
37285;DHT22;23172;53.550;9.964;2022-12-18T00:03:17;-0.70;93.70
37285;DHT22;23172;53.550;9.964;2022-12-18T00:08:20;-0.90;93.60
37285;DHT22;23172;53.550;9.964;2022-12-18T00:13:22;-1.00;93.80
37285;DHT22;23172;53.550;9.964;2022-12-18T00:18:24;-1.00;93.80
37285;DHT22;23172;53.550;9.964;2022-12-18T00:23:27;-1.10;93.80
37285;DHT22;23172;53.550;9.964;2022-12-18T00:28:29;-0.50;93.60
37285;DHT22;23172;53.550;9.964;2022-12-18T00:33:31;-0.90;93.60
37285;DHT22;23172;53.550;9.964;2022-12-18T00:38:34;-1.00;93.80
37285;DHT22;23172;53.550;9.964;2022-12-18T00:43:37;-1.10;93.90
37285;DHT22;23172;53.550;9.964;2022-12-18T00:48:39;-1.30;93.80
37285;DHT22;23172;53.550;9.964;2022-12-18T00:53:42;-0.60;93.30
37285;DHT22;23172;53.550;9.964;2022-12-18T00:58:44;-0.90;93.30
37285;DHT22;23172;53.550;9.964;2022-12-18T01:03:46;-1.10;93.50
37285;DHT22;23172;53.550;9.964;2022-12-18T01:08:49;-1.20;93.50
37285;DHT22;23172;53.550;9.964;2022-12-18T01:13:52;-1.30;93.90
37285;DHT22;23172;53.550;9.964;2022-12-18T01:18:54;-1.30;93.60
37285;DHT22;23172;53.550;9.964;2022-12-18T01:23:57;-0.70;93.10
37285;DHT22;23172;53.550;9.964;2022-12-18T01:28:59;-1.00;93.00
37285;DHT22;23172;53.550;9.964;2022-12-18T01:34:02;-1.30;93.10
37285;DHT22;23172;53.550;9.964;2022-12-18T01:39:07;-1.30;93.30
37285;DHT22;23172;53.550;9.964;2022-12-18T01:49:45;-1.60;93.40
37285;DHT22;23172;53.550;9.964;2022-12-18T01:54:49;-1.80;93.50
37285;DHT22;23172;53.550;9.964;2022-12-18T01:59:53;-1.80;93.60
37285;DHT22;23172;53.550;9.964;2022-12-18T02:04:58;-1.90;93.50
37285;DHT22;23172;53.550;9.964;2022-12-18T02:10:06;-1.90;93.50
37285;DHT22;23172;53.550;9.964;2022-12-18T02:15:14;-1.90;93.60
37285;DHT22;23172;53.550;9.964;2022-12-18T02:20:20;-1.90;93.70
37285;DHT22;23172;53.550;9.964;2022-12-18T02:30:54;-1.90;93.60
37285;DHT22;23172;53.550;9.964;2022-12-18T02:35:58;-1.90;93.50
37285;DHT22;23172;53.550;9.964;2022-12-18T02:41:02;-1.90;93.30
37285;DHT22;23172;53.550;9.964;2022-12-18T02:51:43;-1.80;93.30
37285;DHT22;23172;53.550;9.964;2022-12-18T02:56:50;-1.90;93.70
37285;DHT22;23172;53.550;9.964;2022-12-18T03:01:58;-1.90;93.30
37285;DHT22;23172;53.550;9.964;2022-12-18T03:07:08;-2.00;93.30
37285;DHT22;23172;53.550;9.964;2022-12-18T03:12:14;-2.00;93.30
37285;DHT22;23172;53.550;9.964;2022-12-18T03:17:27;-2.10;93.30
37285;DHT22;23172;53.550;9.964;2022-12-18T03:22:33;-2.10;93.30
37285;DHT22;23172;53.550;9.964;2022-12-18T03:27:39;-2.10;93.30
37285;DHT22;23172;53.550;9.964;2022-12-18T03:32:47;-2.20;93.40
37285;DHT22;23172;53.550;9.964;2022-12-18T03:37:51;-2.30;93.30
37285;DHT22;23172;53.550;9.964;2022-12-18T03:42:59;-2.40;93.40
37285;DHT22;23172;53.550;9.964;2022-12-18T03:48:07;-2.40;93.60
37285;DHT22;23172;53.550;9.964;2022-12-18T03:53:20;-2.50;93.60
37285;DHT22;23172;53.550;9.964;2022-12-18T03:58:25;-2.50;93.50
37285;DHT22;23172;53.550;9.964;2022-12-18T04:03:29;-2.60;93.60
37285;DHT22;23172;53.550;9.964;2022-12-18T04:08:35;-2.70;93.60
37285;DHT22;23172;53.550;9.964;2022-12-18T04:13:37;-2.70;93.50
37285;DHT22;23172;53.550;9.964;2022-12-18T04:18:39;-2.80;93.50
37285;DHT22;23172;53.550;9.964;2022-12-18T04:23:42;-2.80;93.60
37285;DHT22;23172;53.550;9.964;2022-12-18T04:28:44;-2.80;93.60
37285;DHT22;23172;53.550;9.964;2022-12-18T04:33:46;-2.90;93.50
37285;DHT22;23172;53.550;9.964;2022-12-18T04:38:49;-2.90;93.70
37285;DHT22;23172;53.550;9.964;2022-12-18T04:43:51;-2.90;93.70
37285;DHT22;23172;53.550;9.964;2022-12-18T04:48:53;-2.80;93.60
37285;DHT22;23172;53.550;9.964;2022-12-18T04:53:56;-2.90;93.60
37285;DHT22;23172;53.550;9.964;2022-12-18T04:58:58;-2.90;93.60
37285;DHT22;23172;53.550;9.964;2022-12-18T05:04:00;-2.80;93.60
37285;DHT22;23172;53.550;9.964;2022-12-18T05:09:03;-2.90;93.60
37285;DHT22;23172;53.550;9.964;2022-12-18T05:14:05;-2.90;93.60
37285;DHT22;23172;53.550;9.964;2022-12-18T05:19:07;-2.90;93.50
37285;DHT22;23172;53.550;9.964;2022-12-18T05:24:10;-2.80;93.50
37285;DHT22;23172;53.550;9.964;2022-12-18T05:29:12;-2.90;93.50
37285;DHT22;23172;53.550;9.964;2022-12-18T05:34:14;-2.90;93.60
37285;DHT22;23172;53.550;9.964;2022-12-18T05:39:17;-3.00;93.60
37285;DHT22;23172;53.550;9.964;2022-12-18T05:44:19;-3.00;93.70
37285;DHT22;23172;53.550;9.964;2022-12-18T05:49:21;-3.10;93.80
37285;DHT22;23172;53.550;9.964;2022-12-18T05:54:26;-3.10;93.80
37285;DHT22;23172;53.550;9.964;2022-12-18T05:59:28;-3.10;93.70
37285;DHT22;23172;53.550;9.964;2022-12-18T06:04:30;-3.10;93.70
37285;DHT22;23172;53.550;9.964;2022-12-18T06:09:33;-3.10;93.70
37285;DHT22;23172;53.550;9.964;2022-12-18T06:14:35;-3.10;93.70
37285;DHT22;23172;53.550;9.964;2022-12-18T06:19:37;-3.10;93.80
37285;DHT22;23172;53.550;9.964;2022-12-18T06:24:40;-3.20;93.80
37285;DHT22;23172;53.550;9.964;2022-12-18T06:29:42;-3.20;93.90
37285;DHT22;23172;53.550;9.964;2022-12-18T06:34:43;-3.20;93.80
37285;DHT22;23172;53.550;9.964;2022-12-18T06:39:47;-3.20;93.80
37285;DHT22;23172;53.550;9.964;2022-12-18T06:44:48;-3.20;93.70
37285;DHT22;23172;53.550;9.964;2022-12-18T06:49:50;-3.20;93.80
37285;DHT22;23172;53.550;9.964;2022-12-18T06:54:53;-3.20;93.80
37285;DHT22;23172;53.550;9.964;2022-12-18T06:59:55;-3.30;93.80
37285;DHT22;23172;53.550;9.964;2022-12-18T07:04:57;-3.30;93.90
37285;DHT22;23172;53.550;9.964;2022-12-18T07:10:01;-3.30;93.90
37285;DHT22;23172;53.550;9.964;2022-12-18T07:15:03;-3.30;93.80
37285;DHT22;23172;53.550;9.964;2022-12-18T07:20:06;-3.40;93.80
37285;DHT22;23172;53.550;9.964;2022-12-18T07:25:09;-3.50;93.90
37285;DHT22;23172;53.550;9.964;2022-12-18T07:30:11;-3.40;94.00
37285;DHT22;23172;53.550;9.964;2022-12-18T07:35:13;-3.40;93.90
37285;DHT22;23172;53.550;9.964;2022-12-18T07:40:17;-3.50;94.10
37285;DHT22;23172;53.550;9.964;2022-12-18T07:45:18;-3.40;94.10
37285;DHT22;23172;53.550;9.964;2022-12-18T07:50:20;-3.30;94.00
37285;DHT22;23172;53.550;9.964;2022-12-18T07:55:23;-3.30;94.00
37285;DHT22;23172;53.550;9.964;2022-12-18T08:00:26;-3.30;94.00
37285;DHT22;23172;53.550;9.964;2022-12-18T08:05:28;-3.20;94.00
37285;DHT22;23172;53.550;9.964;2022-12-18T08:10:31;-3.20;94.00
37285;DHT22;23172;53.550;9.964;2022-12-18T08:15:33;-3.20;94.00
37285;DHT22;23172;53.550;9.964;2022-12-18T08:20:35;-3.10;93.90
37285;DHT22;23172;53.550;9.964;2022-12-18T08:25:38;-3.10;93.80
37285;DHT22;23172;53.550;9.964;2022-12-18T08:30:40;-3.20;93.90
37285;DHT22;23172;53.550;9.964;2022-12-18T08:35:42;-3.10;93.90
37285;DHT22;23172;53.550;9.964;2022-12-18T08:40:46;-3.10;93.80
37285;DHT22;23172;53.550;9.964;2022-12-18T08:45:47;-3.10;93.80
37285;DHT22;23172;53.550;9.964;2022-12-18T08:50:54;-3.00;93.70
37285;DHT22;23172;53.550;9.964;2022-12-18T08:55:58;-3.00;93.70
37285;DHT22;23172;53.550;9.964;2022-12-18T09:01:00;-2.90;93.70
37285;DHT22;23172;53.550;9.964;2022-12-18T09:06:03;-2.90;93.60
37285;DHT22;23172;53.550;9.964;2022-12-18T09:11:12;-2.90;93.60
37285;DHT22;23172;53.550;9.964;2022-12-18T09:16:15;-2.90;93.60
37285;DHT22;23172;53.550;9.964;2022-12-18T09:21:18;-2.80;93.60
37285;DHT22;23172;53.550;9.964;2022-12-18T09:26:23;-2.80;93.50
37285;DHT22;23172;53.550;9.964;2022-12-18T09:31:25;-2.80;93.60
37285;DHT22;23172;53.550;9.964;2022-12-18T09:36:27;-2.80;93.60
37285;DHT22;23172;53.550;9.964;2022-12-18T09:41:43;-2.70;93.70
37285;DHT22;23172;53.550;9.964;2022-12-18T09:46:48;-2.60;93.70
37285;DHT22;23172;53.550;9.964;2022-12-18T09:51:54;-2.50;93.70
37285;DHT22;23172;53.550;9.964;2022-12-18T09:56:58;-1.90;93.30
37285;DHT22;23172;53.550;9.964;2022-12-18T10:02:12;-2.00;93.10
37285;DHT22;23172;53.550;9.964;2022-12-18T10:07:19;-2.10;93.30
37285;DHT22;23172;53.550;9.964;2022-12-18T10:12:34;-2.10;93.40
37285;DHT22;23172;53.550;9.964;2022-12-18T10:17:45;-1.40;93.00
37285;DHT22;23172;53.550;9.964;2022-12-18T10:22:55;-0.90;91.90
37285;DHT22;23172;53.550;9.964;2022-12-18T10:28:08;-1.30;92.20
37285;DHT22;23172;53.550;9.964;2022-12-18T10:33:12;-1.50;92.50
37285;DHT22;23172;53.550;9.964;2022-12-18T10:38:23;-1.50;92.70
37285;DHT22;23172;53.550;9.964;2022-12-18T10:43:28;-1.60;92.70
37285;DHT22;23172;53.550;9.964;2022-12-18T10:48:31;-1.60;92.80
37285;DHT22;23172;53.550;9.964;2022-12-18T10:53:36;-1.50;92.80
37285;DHT22;23172;53.550;9.964;2022-12-18T10:58:40;-1.50;92.70
37285;DHT22;23172;53.550;9.964;2022-12-18T11:03:43;-1.40;92.70
37285;DHT22;23172;53.550;9.964;2022-12-18T11:08:58;-1.50;92.60
37285;DHT22;23172;53.550;9.964;2022-12-18T11:14:04;-1.40;92.60
37285;DHT22;23172;53.550;9.964;2022-12-18T11:19:21;-1.30;92.60
37285;DHT22;23172;53.550;9.964;2022-12-18T11:24:28;-1.20;92.50
37285;DHT22;23172;53.550;9.964;2022-12-18T11:29:37;-1.20;92.50
37285;DHT22;23172;53.550;9.964;2022-12-18T11:34:39;-1.10;92.40
37285;DHT22;23172;53.550;9.964;2022-12-18T11:39:46;-1.10;92.40
37285;DHT22;23172;53.550;9.964;2022-12-18T11:44:55;-1.10;92.30
37285;DHT22;23172;53.550;9.964;2022-12-18T11:50:01;-1.10;92.30
37285;DHT22;23172;53.550;9.964;2022-12-18T11:55:11;-1.00;92.70
37285;DHT22;23172;53.550;9.964;2022-12-18T12:00:16;-0.30;91.70
37285;DHT22;23172;53.550;9.964;2022-12-18T12:05:32;-0.40;91.70
37285;DHT22;23172;53.550;9.964;2022-12-18T12:10:47;-0.60;91.40
37285;DHT22;23172;53.550;9.964;2022-12-18T12:16:03;-0.60;91.60
37285;DHT22;23172;53.550;9.964;2022-12-18T12:21:12;-0.70;91.80
37285;DHT22;23172;53.550;9.964;2022-12-18T12:26:22;-0.60;91.60
37285;DHT22;23172;53.550;9.964;2022-12-18T12:31:38;-0.60;91.70
37285;DHT22;23172;53.550;9.964;2022-12-18T12:36:50;-0.60;91.70
37285;DHT22;23172;53.550;9.964;2022-12-18T12:41:55;-0.60;91.60
37285;DHT22;23172;53.550;9.964;2022-12-18T12:47:18;-0.60;91.60
37285;DHT22;23172;53.550;9.964;2022-12-18T12:52:28;-0.50;91.60
37285;DHT22;23172;53.550;9.964;2022-12-18T12:57:36;-0.40;91.40
37285;DHT22;23172;53.550;9.964;2022-12-18T13:02:46;-0.30;91.40
37285;DHT22;23172;53.550;9.964;2022-12-18T13:07:52;-0.30;91.10
37285;DHT22;23172;53.550;9.964;2022-12-18T13:12:57;-0.30;91.10
37285;DHT22;23172;53.550;9.964;2022-12-18T13:18:13;-0.30;91.00
37285;DHT22;23172;53.550;9.964;2022-12-18T13:23:30;-0.20;91.00
37285;DHT22;23172;53.550;9.964;2022-12-18T13:28:51;-0.20;90.70
37285;DHT22;23172;53.550;9.964;2022-12-18T13:34:12;-0.30;90.60
37285;DHT22;23172;53.550;9.964;2022-12-18T13:39:25;-0.40;90.40
37285;DHT22;23172;53.550;9.964;2022-12-18T13:44:34;-0.50;90.70
37285;DHT22;23172;53.550;9.964;2022-12-18T13:54:42;-0.60;90.70
37285;DHT22;23172;53.550;9.964;2022-12-18T13:59:46;-0.70;90.70
37285;DHT22;23172;53.550;9.964;2022-12-18T14:04:50;-0.70;90.90
37285;DHT22;23172;53.550;9.964;2022-12-18T14:09:54;-0.70;91.00
37285;DHT22;23172;53.550;9.964;2022-12-18T14:14:58;-0.80;91.10
37285;DHT22;23172;53.550;9.964;2022-12-18T14:20:02;-0.80;91.10
37285;DHT22;23172;53.550;9.964;2022-12-18T14:30:24;-0.90;91.20
37285;DHT22;23172;53.550;9.964;2022-12-18T14:35:28;-1.00;91.30
37285;DHT22;23172;53.550;9.964;2022-12-18T14:40:30;-1.00;91.40
37285;DHT22;23172;53.550;9.964;2022-12-18T14:45:37;-1.00;91.40
37285;DHT22;23172;53.550;9.964;2022-12-18T14:50:43;-1.10;91.60
37285;DHT22;23172;53.550;9.964;2022-12-18T14:55:46;-1.00;91.70
37285;DHT22;23172;53.550;9.964;2022-12-18T15:00:49;-1.00;91.70
37285;DHT22;23172;53.550;9.964;2022-12-18T15:05:52;-1.00;91.70
37285;DHT22;23172;53.550;9.964;2022-12-18T15:10:54;-1.20;91.80
37285;DHT22;23172;53.550;9.964;2022-12-18T15:15:59;-0.70;91.60
37285;DHT22;23172;53.550;9.964;2022-12-18T15:21:10;-0.90;91.70
37285;DHT22;23172;53.550;9.964;2022-12-18T15:26:14;-1.10;92.00
37285;DHT22;23172;53.550;9.964;2022-12-18T15:31:30;-1.10;92.20
37285;DHT22;23172;53.550;9.964;2022-12-18T15:36:34;-1.20;92.30
37285;DHT22;23172;53.550;9.964;2022-12-18T15:41:36;-1.30;92.50
37285;DHT22;23172;53.550;9.964;2022-12-18T15:46:38;-1.30;92.70
37285;DHT22;23172;53.550;9.964;2022-12-18T15:51:42;-0.70;92.50
37285;DHT22;23172;53.550;9.964;2022-12-18T15:56:44;-0.90;92.50
37285;DHT22;23172;53.550;9.964;2022-12-18T16:02:16;-1.00;92.70
37285;DHT22;23172;53.550;9.964;2022-12-18T16:07:20;-1.10;92.70
37285;DHT22;23172;53.550;9.964;2022-12-18T16:12:23;-0.50;92.30
37285;DHT22;23172;53.550;9.964;2022-12-18T16:17:25;-0.90;92.50
37285;DHT22;23172;53.550;9.964;2022-12-18T16:22:29;-1.10;92.90
37285;DHT22;23172;53.550;9.964;2022-12-18T16:27:31;-1.10;93.00
37285;DHT22;23172;53.550;9.964;2022-12-18T16:32:33;-1.20;93.00
37285;DHT22;23172;53.550;9.964;2022-12-18T16:37:37;-0.70;92.70
37285;DHT22;23172;53.550;9.964;2022-12-18T16:42:43;-1.00;92.80
37285;DHT22;23172;53.550;9.964;2022-12-18T16:47:45;-1.20;93.10
37285;DHT22;23172;53.550;9.964;2022-12-18T16:52:49;-0.70;92.70
37285;DHT22;23172;53.550;9.964;2022-12-18T16:57:51;-1.00;92.90
37285;DHT22;23172;53.550;9.964;2022-12-18T17:02:52;-1.20;93.20
37285;DHT22;23172;53.550;9.964;2022-12-18T17:07:55;-1.30;93.50
37285;DHT22;23172;53.550;9.964;2022-12-18T17:12:57;-1.40;93.50
37285;DHT22;23172;53.550;9.964;2022-12-18T17:18:00;-1.50;93.60
37285;DHT22;23172;53.550;9.964;2022-12-18T17:23:03;-0.90;93.30
37285;DHT22;23172;53.550;9.964;2022-12-18T17:28:05;-1.20;93.40
37285;DHT22;23172;53.550;9.964;2022-12-18T17:33:07;-1.30;93.50
37285;DHT22;23172;53.550;9.964;2022-12-18T17:38:10;-1.40;93.70
37285;DHT22;23172;53.550;9.964;2022-12-18T17:43:11;-1.50;93.80
37285;DHT22;23172;53.550;9.964;2022-12-18T17:48:13;-1.50;93.80
37285;DHT22;23172;53.550;9.964;2022-12-18T17:53:16;-1.40;93.70
37285;DHT22;23172;53.550;9.964;2022-12-18T17:58:18;-1.50;93.70
37285;DHT22;23172;53.550;9.964;2022-12-18T18:03:19;-1.40;93.80
37285;DHT22;23172;53.550;9.964;2022-12-18T18:08:23;-1.40;93.70
37285;DHT22;23172;53.550;9.964;2022-12-18T18:13:24;-1.40;93.70
37285;DHT22;23172;53.550;9.964;2022-12-18T18:18:44;-1.50;93.90
37285;DHT22;23172;53.550;9.964;2022-12-18T18:23:47;-1.50;94.00
37285;DHT22;23172;53.550;9.964;2022-12-18T18:28:50;-1.50;93.90
37285;DHT22;23172;53.550;9.964;2022-12-18T18:33:54;-1.50;93.80
37285;DHT22;23172;53.550;9.964;2022-12-18T18:38:58;-1.40;93.80
37285;DHT22;23172;53.550;9.964;2022-12-18T18:44:00;-1.40;93.40
37285;DHT22;23172;53.550;9.964;2022-12-18T18:49:02;-1.40;93.60
37285;DHT22;23172;53.550;9.964;2022-12-18T18:54:06;-1.30;93.50
37285;DHT22;23172;53.550;9.964;2022-12-18T18:59:08;-1.30;93.40
37285;DHT22;23172;53.550;9.964;2022-12-18T19:04:09;-1.30;93.30
37285;DHT22;23172;53.550;9.964;2022-12-18T19:09:12;-1.30;93.20
37285;DHT22;23172;53.550;9.964;2022-12-18T19:14:14;-1.30;93.20
37285;DHT22;23172;53.550;9.964;2022-12-18T19:19:16;-1.30;93.20
37285;DHT22;23172;53.550;9.964;2022-12-18T19:24:21;-1.30;93.20
37285;DHT22;23172;53.550;9.964;2022-12-18T19:29:22;-1.30;93.20
37285;DHT22;23172;53.550;9.964;2022-12-18T20:39:58;-1.30;93.10
37285;DHT22;23172;53.550;9.964;2022-12-18T20:44:59;-1.00;92.20
37285;DHT22;23172;53.550;9.964;2022-12-18T20:50:01;-1.00;92.10
37285;DHT22;23172;53.550;9.964;2022-12-18T20:55:05;-1.00;92.20
37285;DHT22;23172;53.550;9.964;2022-12-18T21:00:08;-1.00;92.20
37285;DHT22;23172;53.550;9.964;2022-12-18T21:05:10;-1.00;92.20
37285;DHT22;23172;53.550;9.964;2022-12-18T21:10:13;-1.00;92.10
37285;DHT22;23172;53.550;9.964;2022-12-18T21:15:15;-0.90;92.20
37285;DHT22;23172;53.550;9.964;2022-12-18T21:20:17;-0.90;92.10
37285;DHT22;23172;53.550;9.964;2022-12-18T21:25:20;-0.80;92.10
37285;DHT22;23172;53.550;9.964;2022-12-18T21:30:22;-0.80;92.20
37285;DHT22;23172;53.550;9.964;2022-12-18T21:35:24;-0.70;92.20
37285;DHT22;23172;53.550;9.964;2022-12-18T21:40:27;-0.70;92.10
37285;DHT22;23172;53.550;9.964;2022-12-18T21:45:29;-0.70;91.90
37285;DHT22;23172;53.550;9.964;2022-12-18T21:50:30;-0.70;92.00
37285;DHT22;23172;53.550;9.964;2022-12-18T21:55:33;-0.80;91.90
37285;DHT22;23172;53.550;9.964;2022-12-18T22:00:35;-0.90;92.10
37285;DHT22;23172;53.550;9.964;2022-12-18T22:05:37;-0.80;92.10
37285;DHT22;23172;53.550;9.964;2022-12-18T22:10:40;-0.70;92.10
37285;DHT22;23172;53.550;9.964;2022-12-18T22:15:41;-0.70;92.00
37285;DHT22;23172;53.550;9.964;2022-12-18T22:20:43;-0.70;92.00
37285;DHT22;23172;53.550;9.964;2022-12-18T22:25:46;-0.70;92.10
37285;DHT22;23172;53.550;9.964;2022-12-18T22:30:47;-0.70;92.00
37285;DHT22;23172;53.550;9.964;2022-12-18T22:37:11;-0.80;92.10
37285;DHT22;23172;53.550;9.964;2022-12-18T22:43:31;-0.70;92.20
37285;DHT22;23172;53.550;9.964;2022-12-18T22:49:58;-0.80;92.20
37285;DHT22;23172;53.550;9.964;2022-12-18T22:55:21;-0.70;92.10
37285;DHT22;23172;53.550;9.964;2022-12-18T23:00:24;-0.60;92.00
37285;DHT22;23172;53.550;9.964;2022-12-18T23:05:26;-0.70;92.00
37285;DHT22;23172;53.550;9.964;2022-12-18T23:10:28;-0.60;92.00
37285;DHT22;23172;53.550;9.964;2022-12-18T23:15:31;-0.50;91.90
37285;DHT22;23172;53.550;9.964;2022-12-18T23:20:33;-0.60;91.90
37285;DHT22;23172;53.550;9.964;2022-12-18T23:25:34;-0.60;92.00
37285;DHT22;23172;53.550;9.964;2022-12-18T23:30:37;-0.60;92.00
37285;DHT22;23172;53.550;9.964;2022-12-18T23:35:39;-0.60;92.20
37285;DHT22;23172;53.550;9.964;2022-12-18T23:40:41;-0.60;92.20
37285;DHT22;23172;53.550;9.964;2022-12-18T23:45:44;-0.60;92.10
37285;DHT22;23172;53.550;9.964;2022-12-18T23:50:45;-0.60;92.30
37285;DHT22;23172;53.550;9.964;2022-12-18T23:55:47;-0.60;92.40
